sensor_id;sensor_type;location;lat;lon;timestamp;pressure;altitude;pressure_sealevel;temperature;humidity
46211;BME280;52144;48.040;-1.594;2022-08-19T00:00:38;101273.50;;;21.15;89.86
46211;BME280;52144;48.040;-1.594;2022-08-19T00:03:06;101275.50;;;21.13;90.89
46211;BME280;52144;48.040;-1.594;2022-08-19T00:05:35;101277.44;;;21.22;90.16
46211;BME280;52144;48.040;-1.594;2022-08-19T00:08:03;101282.97;;;21.32;89.89
46211;BME280;52144;48.040;-1.594;2022-08-19T00:10:31;101284.69;;;21.33;89.59
46211;BME280;52144;48.040;-1.594;2022-08-19T00:13:01;101280.88;;;21.24;90.54
46211;BME280;52144;48.040;-1.594;2022-08-19T00:15:30;101282.56;;;21.37;89.11
46211;BME280;52144;48.040;-1.594;2022-08-19T00:17:58;101282.75;;;21.13;90.47
46211;BME280;52144;48.040;-1.594;2022-08-19T00:20:26;101283.84;;;21.10;90.19
46211;BME280;52144;48.040;-1.594;2022-08-19T00:22:54;101275.97;;;21.18;89.81
46211;BME280;52144;48.040;-1.594;2022-08-19T00:25:22;101266.00;;;21.19;89.90
46211;BME280;52144;48.040;-1.594;2022-08-19T00:27:56;101273.47;;;21.27;89.49
46211;BME280;52144;48.040;-1.594;2022-08-19T00:30:25;101265.00;;;21.31;88.98
46211;BME280;52144;48.040;-1.594;2022-08-19T00:32:53;101261.66;;;21.28;88.93
46211;BME280;52144;48.040;-1.594;2022-08-19T00:35:22;101266.34;;;21.14;88.98
46211;BME280;52144;48.040;-1.594;2022-08-19T00:37:50;101279.81;;;21.04;90.57
46211;BME280;52144;48.040;-1.594;2022-08-19T00:40:18;101271.56;;;20.95;90.71
46211;BME280;52144;48.040;-1.594;2022-08-19T00:42:46;101269.34;;;20.77;92.21
46211;BME280;52144;48.040;-1.594;2022-08-19T00:45:18;101277.72;;;20.97;91.56
46211;BME280;52144;48.040;-1.594;2022-08-19T00:47:48;101272.31;;;20.97;91.19
46211;BME280;52144;48.040;-1.594;2022-08-19T00:50:18;101264.31;;;21.07;90.79
46211;BME280;52144;48.040;-1.594;2022-08-19T00:52:49;101261.44;;;21.08;91.24
46211;BME280;52144;48.040;-1.594;2022-08-19T00:55:21;101265.78;;;21.11;91.06
46211;BME280;52144;48.040;-1.594;2022-08-19T00:57:53;101272.44;;;21.07;91.10
46211;BME280;52144;48.040;-1.594;2022-08-19T01:00:24;101261.94;;;21.13;91.23
46211;BME280;52144;48.040;-1.594;2022-08-19T01:02:55;101260.34;;;20.88;93.30
46211;BME280;52144;48.040;-1.594;2022-08-19T01:05:24;101261.69;;;20.94;93.09
46211;BME280;52144;48.040;-1.594;2022-08-19T01:07:54;101255.56;;;21.03;92.74
46211;BME280;52144;48.040;-1.594;2022-08-19T01:10:25;101257.03;;;20.96;93.67
46211;BME280;52144;48.040;-1.594;2022-08-19T01:12:59;101260.09;;;20.80;94.68
46211;BME280;52144;48.040;-1.594;2022-08-19T01:15:30;101260.38;;;20.77;95.41
46211;BME280;52144;48.040;-1.594;2022-08-19T01:18:04;101257.53;;;20.67;96.67
46211;BME280;52144;48.040;-1.594;2022-08-19T01:20:34;101251.63;;;20.84;96.40
46211;BME280;52144;48.040;-1.594;2022-08-19T01:23:03;101256.03;;;20.86;96.84
46211;BME280;52144;48.040;-1.594;2022-08-19T01:25:35;101252.00;;;20.91;96.43
46211;BME280;52144;48.040;-1.594;2022-08-19T01:28:04;101246.69;;;21.01;96.94
46211;BME280;52144;48.040;-1.594;2022-08-19T01:30:37;101250.00;;;20.93;97.55
46211;BME280;52144;48.040;-1.594;2022-08-19T01:33:10;101257.53;;;20.78;98.27
46211;BME280;52144;48.040;-1.594;2022-08-19T01:35:38;101246.69;;;21.01;97.44
46211;BME280;52144;48.040;-1.594;2022-08-19T01:38:10;101260.47;;;21.09;96.59
46211;BME280;52144;48.040;-1.594;2022-08-19T01:40:39;101256.91;;;20.75;99.80
46211;BME280;52144;48.040;-1.594;2022-08-19T01:43:08;101256.28;;;20.94;99.44
46211;BME280;52144;48.040;-1.594;2022-08-19T01:45:36;101248.56;;;21.00;98.73
46211;BME280;52144;48.040;-1.594;2022-08-19T01:48:06;101260.75;;;20.95;99.70
46211;BME280;52144;48.040;-1.594;2022-08-19T01:50:35;101255.44;;;20.93;99.81
46211;BME280;52144;48.040;-1.594;2022-08-19T01:53:08;101253.09;;;21.00;100.00
46211;BME280;52144;48.040;-1.594;2022-08-19T01:55:40;101241.50;;;20.98;100.00
46211;BME280;52144;48.040;-1.594;2022-08-19T01:58:11;101248.19;;;20.82;100.00
46211;BME280;52144;48.040;-1.594;2022-08-19T02:00:40;101249.91;;;20.61;100.00
46211;BME280;52144;48.040;-1.594;2022-08-19T02:03:08;101256.31;;;20.82;100.00
46211;BME280;52144;48.040;-1.594;2022-08-19T02:05:38;101252.38;;;20.64;100.00
46211;BME280;52144;48.040;-1.594;2022-08-19T02:08:06;101267.88;;;20.84;100.00
46211;BME280;52144;48.040;-1.594;2022-08-19T02:10:40;101267.00;;;20.95;100.00
46211;BME280;52144;48.040;-1.594;2022-08-19T02:13:08;101261.34;;;20.76;100.00
46211;BME280;52144;48.040;-1.594;2022-08-19T02:15:37;101254.56;;;20.81;100.00
46211;BME280;52144;48.040;-1.594;2022-08-19T02:18:05;101255.44;;;20.93;100.00
46211;BME280;52144;48.040;-1.594;2022-08-19T02:20:35;101249.28;;;20.91;100.00
46211;BME280;52144;48.040;-1.594;2022-08-19T02:23:03;101249.63;;;21.09;100.00
46211;BME280;52144;48.040;-1.594;2022-08-19T02:25:41;101255.75;;;21.22;100.00
46211;BME280;52144;48.040;-1.594;2022-08-19T02:28:09;101258.22;;;21.26;100.00
46211;BME280;52144;48.040;-1.594;2022-08-19T02:30:43;101258.47;;;21.22;100.00
46211;BME280;52144;48.040;-1.594;2022-08-19T02:33:11;101250.47;;;21.21;100.00
46211;BME280;52144;48.040;-1.594;2022-08-19T02:35:41;101250.97;;;21.15;100.00
46211;BME280;52144;48.040;-1.594;2022-08-19T02:38:09;101259.97;;;21.15;100.00
46211;BME280;52144;48.040;-1.594;2022-08-19T02:40:59;101265.63;;;21.12;100.00
46211;BME280;52144;48.040;-1.594;2022-08-19T02:43:29;101254.81;;;21.01;100.00
46211;BME280;52144;48.040;-1.594;2022-08-19T02:46:00;101266.28;;;21.04;100.00
46211;BME280;52144;48.040;-1.594;2022-08-19T02:48:28;101261.78;;;21.26;100.00
46211;BME280;52144;48.040;-1.594;2022-08-19T02:50:56;101262.28;;;21.20;100.00
46211;BME280;52144;48.040;-1.594;2022-08-19T02:53:26;101258.59;;;21.21;100.00
46211;BME280;52144;48.040;-1.594;2022-08-19T02:55:54;101260.81;;;21.16;100.00
46211;BME280;52144;48.040;-1.594;2022-08-19T02:58:24;101275.72;;;21.21;100.00
46211;BME280;52144;48.040;-1.594;2022-08-19T03:00:54;101271.16;;;21.22;100.00
46211;BME280;52144;48.040;-1.594;2022-08-19T03:03:23;101273.66;;;20.91;100.00
46211;BME280;52144;48.040;-1.594;2022-08-19T03:05:50;101259.34;;;21.12;100.00
46211;BME280;52144;48.040;-1.594;2022-08-19T03:08:23;101260.19;;;21.12;100.00
46211;BME280;52144;48.040;-1.594;2022-08-19T03:10:52;101268.88;;;20.95;100.00
46211;BME280;52144;48.040;-1.594;2022-08-19T03:13:20;101256.31;;;20.82;100.00
46211;BME280;52144;48.040;-1.594;2022-08-19T03:15:49;101261.72;;;21.05;100.00
46211;BME280;52144;48.040;-1.594;2022-08-19T03:18:17;101264.66;;;21.02;100.00
46211;BME280;52144;48.040;-1.594;2022-08-19T03:20:46;101259.47;;;21.10;100.00
46211;BME280;52144;48.040;-1.594;2022-08-19T03:23:15;101264.41;;;21.05;100.00
46211;BME280;52144;48.040;-1.594;2022-08-19T03:25:45;101259.22;;;21.13;100.00
46211;BME280;52144;48.040;-1.594;2022-08-19T03:28:33;101254.53;;;21.15;100.00
46211;BME280;52144;48.040;-1.594;2022-08-19T03:31:06;101257.50;;;21.23;100.00
46211;BME280;52144;48.040;-1.594;2022-08-19T03:33:55;101251.28;;;21.33;100.00
46211;BME280;52144;48.040;-1.594;2022-08-19T03:36:25;101253.50;;;21.39;100.00
46211;BME280;52144;48.040;-1.594;2022-08-19T03:38:57;101259.56;;;21.42;100.00
46211;BME280;52144;48.040;-1.594;2022-08-19T03:41:27;101254.72;;;21.35;100.00
46211;BME280;52144;48.040;-1.594;2022-08-19T03:44:10;101260.41;;;21.32;100.00
46211;BME280;52144;48.040;-1.594;2022-08-19T03:46:46;101270.31;;;21.21;100.00
46211;BME280;52144;48.040;-1.594;2022-08-19T03:49:14;101268.56;;;21.20;100.00
46211;BME280;52144;48.040;-1.594;2022-08-19T03:51:44;101263.75;;;21.24;100.00
46211;BME280;52144;48.040;-1.594;2022-08-19T03:54:14;101271.31;;;21.09;100.00
46211;BME280;52144;48.040;-1.594;2022-08-19T03:56:44;101269.94;;;21.15;100.00
46211;BME280;52144;48.040;-1.594;2022-08-19T03:59:15;101272.75;;;21.24;100.00
46211;BME280;52144;48.040;-1.594;2022-08-19T04:01:45;101272.28;;;21.08;100.00
46211;BME280;52144;48.040;-1.594;2022-08-19T04:04:13;101266.84;;;21.19;100.00
46211;BME280;52144;48.040;-1.594;2022-08-19T04:06:41;101276.84;;;21.19;100.00
46211;BME280;52144;48.040;-1.594;2022-08-19T04:09:10;101266.34;;;21.26;100.00
46211;BME280;52144;48.040;-1.594;2022-08-19T04:11:43;101271.88;;;21.35;100.00
46211;BME280;52144;48.040;-1.594;2022-08-19T04:14:14;101267.47;;;21.12;100.00
46211;BME280;52144;48.040;-1.594;2022-08-19T04:16:42;101261.09;;;21.13;100.00
46211;BME280;52144;48.040;-1.594;2022-08-19T04:19:13;101262.19;;;21.10;100.00
46211;BME280;52144;48.040;-1.594;2022-08-19T04:21:44;101268.63;;;20.87;100.00
46211;BME280;52144;48.040;-1.594;2022-08-19T04:24:12;101265.88;;;20.98;100.00
46211;BME280;52144;48.040;-1.594;2022-08-19T04:26:41;101258.50;;;21.11;100.00
46211;BME280;52144;48.040;-1.594;2022-08-19T04:29:12;101265.13;;;21.18;100.00
46211;BME280;52144;48.040;-1.594;2022-08-19T04:31:42;101261.53;;;21.29;100.00
46211;BME280;52144;48.040;-1.594;2022-08-19T04:34:15;101265.84;;;21.32;100.00
46211;BME280;52144;48.040;-1.594;2022-08-19T04:36:44;101258.69;;;21.31;100.00
46211;BME280;52144;48.040;-1.594;2022-08-19T04:39:16;101265.38;;;21.15;100.00
46211;BME280;52144;48.040;-1.594;2022-08-19T04:41:44;101264.81;;;21.00;100.00
46211;BME280;52144;48.040;-1.594;2022-08-19T04:44:30;101266.50;;;20.90;100.00
46211;BME280;52144;48.040;-1.594;2022-08-19T04:47:01;101266.16;;;20.95;100.00
46211;BME280;52144;48.040;-1.594;2022-08-19T04:49:38;101263.91;;;21.00;100.00
46211;BME280;52144;48.040;-1.594;2022-08-19T04:52:06;101253.19;;;21.21;100.00
46211;BME280;52144;48.040;-1.594;2022-08-19T04:54:34;101257.88;;;21.19;100.00
46211;BME280;52144;48.040;-1.594;2022-08-19T04:57:06;101269.34;;;21.11;100.00
46211;BME280;52144;48.040;-1.594;2022-08-19T04:59:36;101267.72;;;20.86;100.00
46211;BME280;52144;48.040;-1.594;2022-08-19T05:02:04;101262.09;;;21.00;100.00
46211;BME280;52144;48.040;-1.594;2022-08-19T05:04:34;101268.59;;;20.98;100.00
46211;BME280;52144;48.040;-1.594;2022-08-19T05:07:06;101270.44;;;20.86;100.00
46211;BME280;52144;48.040;-1.594;2022-08-19T05:09:35;101266.13;;;21.06;100.00
46211;BME280;52144;48.040;-1.594;2022-08-19T05:12:23;101271.66;;;21.16;100.00
46211;BME280;52144;48.040;-1.594;2022-08-19T05:14:55;101272.28;;;21.19;100.00
46211;BME280;52144;48.040;-1.594;2022-08-19T05:17:23;101265.38;;;21.15;100.00
46211;BME280;52144;48.040;-1.594;2022-08-19T05:19:53;101276.00;;;20.96;100.00
46211;BME280;52144;48.040;-1.594;2022-08-19T05:22:49;101276.50;;;21.01;100.00
46211;BME280;52144;48.040;-1.594;2022-08-19T05:25:19;101268.38;;;21.01;100.00
46211;BME280;52144;48.040;-1.594;2022-08-19T05:27:47;101284.22;;;20.94;100.00
46211;BME280;52144;48.040;-1.594;2022-08-19T05:30:16;101278.06;;;21.03;100.00
46211;BME280;52144;48.040;-1.594;2022-08-19T05:33:04;101275.75;;;20.99;100.00
46211;BME280;52144;48.040;-1.594;2022-08-19T05:35:32;101285.13;;;20.95;100.00
46211;BME280;52144;48.040;-1.594;2022-08-19T05:38:01;101285.59;;;21.11;100.00
46211;BME280;52144;48.040;-1.594;2022-08-19T05:40:29;101279.91;;;21.14;100.00
46211;BME280;52144;48.040;-1.594;2022-08-19T05:42:57;101285.56;;;21.22;100.00
46211;BME280;52144;48.040;-1.594;2022-08-19T05:45:25;101281.53;;;21.06;100.00
46211;BME280;52144;48.040;-1.594;2022-08-19T05:47:52;101285.59;;;21.11;100.00
46211;BME280;52144;48.040;-1.594;2022-08-19T05:50:21;101284.97;;;21.19;100.00
46211;BME280;52144;48.040;-1.594;2022-08-19T05:52:48;101289.78;;;21.04;100.00
46211;BME280;52144;48.040;-1.594;2022-08-19T05:55:18;101289.75;;;21.27;100.00
46211;BME280;52144;48.040;-1.594;2022-08-19T05:57:46;101293.97;;;20.97;100.00
46211;BME280;52144;48.040;-1.594;2022-08-19T06:00:15;101305.31;;;20.68;100.00
46211;BME280;52144;48.040;-1.594;2022-08-19T06:02:49;101295.44;;;21.01;100.00
46211;BME280;52144;48.040;-1.594;2022-08-19T06:05:18;101304.78;;;21.19;100.00
46211;BME280;52144;48.040;-1.594;2022-08-19T06:07:46;101308.47;;;21.18;100.00
46211;BME280;52144;48.040;-1.594;2022-08-19T06:10:14;101304.78;;;21.19;100.00
46211;BME280;52144;48.040;-1.594;2022-08-19T06:12:43;101299.03;;;21.13;100.00
46211;BME280;52144;48.040;-1.594;2022-08-19T06:15:13;101298.88;;;21.26;100.00
46211;BME280;52144;48.040;-1.594;2022-08-19T06:17:41;101301.09;;;21.09;100.00
46211;BME280;52144;48.040;-1.594;2022-08-19T06:20:13;101301.94;;;21.32;100.00
46211;BME280;52144;48.040;-1.594;2022-08-19T06:22:43;101297.91;;;21.15;100.00
46211;BME280;52144;48.040;-1.594;2022-08-19T06:25:11;101311.06;;;20.86;100.00
46211;BME280;52144;48.040;-1.594;2022-08-19T06:27:40;101311.84;;;21.11;100.00
46211;BME280;52144;48.040;-1.594;2022-08-19T06:30:29;101307.38;;;21.10;100.00
46211;BME280;52144;48.040;-1.594;2022-08-19T06:32:57;101303.81;;;21.09;100.00
46211;BME280;52144;48.040;-1.594;2022-08-19T06:35:25;101298.03;;;21.14;100.00
46211;BME280;52144;48.040;-1.594;2022-08-19T06:37:53;101303.16;;;21.28;100.00
46211;BME280;52144;48.040;-1.594;2022-08-19T06:40:21;101300.63;;;21.15;100.00
46211;BME280;52144;48.040;-1.594;2022-08-19T06:42:49;101299.59;;;21.16;100.00
46211;BME280;52144;48.040;-1.594;2022-08-19T06:45:20;101303.81;;;20.98;100.00
46211;BME280;52144;48.040;-1.594;2022-08-19T06:48:01;101309.22;;;20.75;100.00
46211;BME280;52144;48.040;-1.594;2022-08-19T06:50:29;101308.97;;;20.90;100.00
46211;BME280;52144;48.040;-1.594;2022-08-19T06:52:57;101306.28;;;21.01;100.00
46211;BME280;52144;48.040;-1.594;2022-08-19T06:55:30;101304.78;;;21.08;100.00
46211;BME280;52144;48.040;-1.594;2022-08-19T06:58:01;101311.44;;;21.04;100.00
46211;BME280;52144;48.040;-1.594;2022-08-19T07:00:30;101314.50;;;21.33;100.00
46211;BME280;52144;48.040;-1.594;2022-08-19T07:02:58;101321.63;;;21.34;100.00
46211;BME280;52144;48.040;-1.594;2022-08-19T07:05:39;101316.13;;;21.02;100.00
46211;BME280;52144;48.040;-1.594;2022-08-19T07:08:11;101309.31;;;21.30;100.00
46211;BME280;52144;48.040;-1.594;2022-08-19T07:10:43;101315.34;;;21.56;100.00
46211;BME280;52144;48.040;-1.594;2022-08-19T07:13:11;101313.34;;;21.70;100.00
46211;BME280;52144;48.040;-1.594;2022-08-19T07:15:39;101313.66;;;21.44;100.00
46211;BME280;52144;48.040;-1.594;2022-08-19T07:18:06;101319.94;;;21.33;100.00
46211;BME280;52144;48.040;-1.594;2022-08-19T07:20:39;101313.13;;;21.39;100.00
46211;BME280;52144;48.040;-1.594;2022-08-19T07:23:08;101325.22;;;21.23;100.00
46211;BME280;52144;48.040;-1.594;2022-08-19T07:25:44;101316.63;;;21.07;100.00
46211;BME280;52144;48.040;-1.594;2022-08-19T07:28:18;101330.13;;;21.41;100.00
46211;BME280;52144;48.040;-1.594;2022-08-19T07:30:50;101329.53;;;21.26;100.00
46211;BME280;52144;48.040;-1.594;2022-08-19T07:33:18;101324.50;;;21.44;100.00
46211;BME280;52144;48.040;-1.594;2022-08-19T07:35:48;101337.50;;;21.39;100.00
46211;BME280;52144;48.040;-1.594;2022-08-19T07:38:16;101331.41;;;21.26;100.00
46211;BME280;52144;48.040;-1.594;2022-08-19T07:40:44;101335.56;;;21.18;100.00
46211;BME280;52144;48.040;-1.594;2022-08-19T07:43:13;101339.00;;;21.20;100.00
46211;BME280;52144;48.040;-1.594;2022-08-19T07:45:44;101339.00;;;21.20;100.00
46211;BME280;52144;48.040;-1.594;2022-08-19T07:48:13;101340.72;;;21.33;100.00
46211;BME280;52144;48.040;-1.594;2022-08-19T07:50:42;101340.63;;;21.34;100.00
46211;BME280;52144;48.040;-1.594;2022-08-19T07:53:11;101340.50;;;21.24;100.00
46211;BME280;52144;48.040;-1.594;2022-08-19T07:55:39;101326.28;;;21.66;100.00
46211;BME280;52144;48.040;-1.594;2022-08-19T07:58:11;101330.22;;;22.06;100.00
46211;BME280;52144;48.040;-1.594;2022-08-19T08:00:40;101330.66;;;21.46;100.00
46211;BME280;52144;48.040;-1.594;2022-08-19T08:03:08;101337.78;;;21.47;100.00
46211;BME280;52144;48.040;-1.594;2022-08-19T08:05:36;101343.88;;;21.83;100.00
46211;BME280;52144;48.040;-1.594;2022-08-19T08:08:22;101343.47;;;21.88;100.00
46211;BME280;52144;48.040;-1.594;2022-08-19T08:11:12;101347.38;;;21.74;100.00
46211;BME280;52144;48.040;-1.594;2022-08-19T08:13:41;101351.91;;;21.73;100.00
46211;BME280;52144;48.040;-1.594;2022-08-19T08:16:09;101348.34;;;21.61;100.00
46211;BME280;52144;48.040;-1.594;2022-08-19T08:18:40;101345.63;;;22.05;100.00
46211;BME280;52144;48.040;-1.594;2022-08-19T08:21:18;101344.59;;;21.85;100.00
46211;BME280;52144;48.040;-1.594;2022-08-19T08:23:47;101341.56;;;21.67;100.00
46211;BME280;52144;48.040;-1.594;2022-08-19T08:26:18;101342.38;;;21.90;100.00
46211;BME280;52144;48.040;-1.594;2022-08-19T08:28:46;101338.69;;;22.12;100.00
46211;BME280;52144;48.040;-1.594;2022-08-19T08:31:15;101340.97;;;22.28;100.00
46211;BME280;52144;48.040;-1.594;2022-08-19T08:33:46;101328.53;;;22.47;100.00
46211;BME280;52144;48.040;-1.594;2022-08-19T08:36:15;101336.41;;;22.71;100.00
46211;BME280;52144;48.040;-1.594;2022-08-19T08:38:43;101342.09;;;22.89;100.00
46211;BME280;52144;48.040;-1.594;2022-08-19T08:41:20;101328.53;;;22.47;100.00
46211;BME280;52144;48.040;-1.594;2022-08-19T08:43:51;101341.66;;;22.93;100.00
46211;BME280;52144;48.040;-1.594;2022-08-19T08:46:24;101344.81;;;22.47;100.00
46211;BME280;52144;48.040;-1.594;2022-08-19T08:49:02;101349.81;;;22.41;100.00
46211;BME280;52144;48.040;-1.594;2022-08-19T08:51:38;101343.03;;;22.78;100.00
46211;BME280;52144;48.040;-1.594;2022-08-19T08:54:16;101341.03;;;22.59;100.00
46211;BME280;52144;48.040;-1.594;2022-08-19T08:56:47;101336.19;;;22.83;100.00
46211;BME280;52144;48.040;-1.594;2022-08-19T08:59:21;101339.53;;;22.66;100.00
46211;BME280;52144;48.040;-1.594;2022-08-19T09:01:50;101349.00;;;22.72;100.00
46211;BME280;52144;48.040;-1.594;2022-08-19T09:04:18;101350.31;;;22.77;100.00
46211;BME280;52144;48.040;-1.594;2022-08-19T09:06:51;101347.94;;;22.94;100.00
46211;BME280;52144;48.040;-1.594;2022-08-19T09:09:27;101346.38;;;23.12;100.00
46211;BME280;52144;48.040;-1.594;2022-08-19T09:12:07;101349.47;;;23.08;100.00
46211;BME280;52144;48.040;-1.594;2022-08-19T09:14:43;101348.34;;;23.41;100.00
46211;BME280;52144;48.040;-1.594;2022-08-19T09:17:18;101339.75;;;23.46;100.00
46211;BME280;52144;48.040;-1.594;2022-08-19T09:19:50;101342.19;;;23.39;100.00
46211;BME280;52144;48.040;-1.594;2022-08-19T09:22:19;101342.13;;;23.89;99.94
46211;BME280;52144;48.040;-1.594;2022-08-19T09:24:51;101342.00;;;24.00;99.20
46211;BME280;52144;48.040;-1.594;2022-08-19T09:27:21;101348.56;;;23.28;100.00
46211;BME280;52144;48.040;-1.594;2022-08-19T09:30:13;101353.09;;;23.58;100.00
46211;BME280;52144;48.040;-1.594;2022-08-19T09:32:41;101346.50;;;23.51;100.00
46211;BME280;52144;48.040;-1.594;2022-08-19T09:35:10;101345.72;;;23.30;100.00
46211;BME280;52144;48.040;-1.594;2022-08-19T09:37:39;101347.56;;;22.98;100.00
46211;BME280;52144;48.040;-1.594;2022-08-19T09:40:09;101359.38;;;23.49;100.00
46211;BME280;52144;48.040;-1.594;2022-08-19T09:42:39;101346.72;;;23.79;100.00
46211;BME280;52144;48.040;-1.594;2022-08-19T09:45:19;101352.47;;;24.15;98.56
46211;BME280;52144;48.040;-1.594;2022-08-19T09:47:49;101349.16;;;24.21;98.70
46211;BME280;52144;48.040;-1.594;2022-08-19T09:50:21;101346.00;;;23.87;99.37
46211;BME280;52144;48.040;-1.594;2022-08-19T09:52:49;101346.28;;;23.93;99.14
46211;BME280;52144;48.040;-1.594;2022-08-19T09:55:24;101343.72;;;24.01;99.02
46211;BME280;52144;48.040;-1.594;2022-08-19T09:58:00;101344.31;;;24.15;98.41
46211;BME280;52144;48.040;-1.594;2022-08-19T10:00:28;101333.41;;;24.25;96.49
46211;BME280;52144;48.040;-1.594;2022-08-19T10:02:56;101344.88;;;23.99;95.68
46211;BME280;52144;48.040;-1.594;2022-08-19T10:05:24;101352.78;;;23.52;99.49
46211;BME280;52144;48.040;-1.594;2022-08-19T10:08:10;101343.06;;;23.49;100.00
46211;BME280;52144;48.040;-1.594;2022-08-19T10:10:39;101341.06;;;23.61;100.00
46211;BME280;52144;48.040;-1.594;2022-08-19T10:13:15;101346.00;;;24.16;96.77
46211;BME280;52144;48.040;-1.594;2022-08-19T10:15:43;101337.69;;;24.08;96.09
46211;BME280;52144;48.040;-1.594;2022-08-19T10:18:13;101348.03;;;24.04;95.67
46211;BME280;52144;48.040;-1.594;2022-08-19T10:20:43;101345.41;;;24.41;93.54
46211;BME280;52144;48.040;-1.594;2022-08-19T10:23:18;101348.88;;;24.24;93.44
46211;BME280;52144;48.040;-1.594;2022-08-19T10:25:47;101352.91;;;24.10;94.21
46211;BME280;52144;48.040;-1.594;2022-08-19T10:28:16;101354.78;;;24.96;90.04
46211;BME280;52144;48.040;-1.594;2022-08-19T10:30:45;101350.53;;;24.83;90.18
46211;BME280;52144;48.040;-1.594;2022-08-19T10:33:13;101345.59;;;24.30;91.41
46211;BME280;52144;48.040;-1.594;2022-08-19T10:36:02;101335.84;;;24.18;93.65
46211;BME280;52144;48.040;-1.594;2022-08-19T10:38:30;101342.28;;;24.17;93.47
46211;BME280;52144;48.040;-1.594;2022-08-19T10:41:07;101339.13;;;24.21;94.59
46211;BME280;52144;48.040;-1.594;2022-08-19T10:43:36;101340.28;;;23.90;99.35
46211;BME280;52144;48.040;-1.594;2022-08-19T10:46:07;101347.63;;;23.39;100.00
46211;BME280;52144;48.040;-1.594;2022-08-19T10:48:43;101352.41;;;23.66;100.00
46211;BME280;52144;48.040;-1.594;2022-08-19T10:51:11;101340.03;;;23.02;100.00
46211;BME280;52144;48.040;-1.594;2022-08-19T10:53:57;101346.44;;;23.01;100.00
46211;BME280;52144;48.040;-1.594;2022-08-19T10:56:25;101350.75;;;23.44;100.00
46211;BME280;52144;48.040;-1.594;2022-08-19T10:59:12;101343.81;;;23.71;100.00
46211;BME280;52144;48.040;-1.594;2022-08-19T11:01:42;101342.72;;;24.02;100.00
46211;BME280;52144;48.040;-1.594;2022-08-19T11:04:10;101339.13;;;24.12;100.00
46211;BME280;52144;48.040;-1.594;2022-08-19T11:06:40;101337.28;;;24.02;100.00
46211;BME280;52144;48.040;-1.594;2022-08-19T11:09:10;101336.28;;;24.23;100.00
46211;BME280;52144;48.040;-1.594;2022-08-19T11:11:38;101338.28;;;24.21;100.00
46211;BME280;52144;48.040;-1.594;2022-08-19T11:14:08;101341.00;;;24.11;100.00
46211;BME280;52144;48.040;-1.594;2022-08-19T11:16:37;101340.84;;;23.93;100.00
46211;BME280;52144;48.040;-1.594;2022-08-19T11:19:06;101338.00;;;23.95;100.00
46211;BME280;52144;48.040;-1.594;2022-08-19T11:21:37;101343.00;;;23.80;100.00
46211;BME280;52144;48.040;-1.594;2022-08-19T11:24:07;101349.03;;;23.33;100.00
46211;BME280;52144;48.040;-1.594;2022-08-19T11:26:36;101343.41;;;23.25;100.00
46211;BME280;52144;48.040;-1.594;2022-08-19T11:29:06;101343.53;;;23.23;100.00
46211;BME280;52144;48.040;-1.594;2022-08-19T11:31:40;101332.53;;;23.85;100.00
46211;BME280;52144;48.040;-1.594;2022-08-19T11:34:11;101340.84;;;24.03;100.00
46211;BME280;52144;48.040;-1.594;2022-08-19T11:36:42;101340.00;;;23.93;100.00
46211;BME280;52144;48.040;-1.594;2022-08-19T11:39:13;101327.66;;;24.28;100.00
46211;BME280;52144;48.040;-1.594;2022-08-19T11:41:42;101333.91;;;24.77;100.00
46211;BME280;52144;48.040;-1.594;2022-08-19T11:44:10;101328.38;;;24.59;100.00
46211;BME280;52144;48.040;-1.594;2022-08-19T11:46:43;101330.81;;;24.23;100.00
46211;BME280;52144;48.040;-1.594;2022-08-19T11:49:13;101325.53;;;24.21;100.00
46211;BME280;52144;48.040;-1.594;2022-08-19T11:51:41;101320.78;;;24.23;100.00
46211;BME280;52144;48.040;-1.594;2022-08-19T11:54:11;101330.28;;;24.00;100.00
46211;BME280;52144;48.040;-1.594;2022-08-19T11:56:40;101342.22;;;23.58;100.00
46211;BME280;52144;48.040;-1.594;2022-08-19T11:59:09;101340.81;;;23.23;100.00
46211;BME280;52144;48.040;-1.594;2022-08-19T12:01:42;101338.09;;;23.23;100.00
46211;BME280;52144;48.040;-1.594;2022-08-19T12:04:10;101335.09;;;22.65;100.00
46211;BME280;52144;48.040;-1.594;2022-08-19T12:06:40;101338.81;;;22.95;100.00
46211;BME280;52144;48.040;-1.594;2022-08-19T12:09:09;101334.06;;;23.08;100.00
46211;BME280;52144;48.040;-1.594;2022-08-19T12:11:38;101341.53;;;22.95;100.00
46211;BME280;52144;48.040;-1.594;2022-08-19T12:14:09;101341.13;;;22.48;100.00
46211;BME280;52144;48.040;-1.594;2022-08-19T12:16:44;101346.78;;;22.35;100.00
46211;BME280;52144;48.040;-1.594;2022-08-19T12:19:18;101346.88;;;22.54;100.00
46211;BME280;52144;48.040;-1.594;2022-08-19T12:21:48;101349.25;;;22.69;100.00
46211;BME280;52144;48.040;-1.594;2022-08-19T12:24:16;101356.09;;;22.63;100.00
46211;BME280;52144;48.040;-1.594;2022-08-19T12:26:49;101349.69;;;22.95;100.00
46211;BME280;52144;48.040;-1.594;2022-08-19T12:29:19;101351.13;;;22.68;100.00
46211;BME280;52144;48.040;-1.594;2022-08-19T12:31:51;101351.63;;;23.04;100.00
46211;BME280;52144;48.040;-1.594;2022-08-19T12:34:19;101361.13;;;23.60;100.00
46211;BME280;52144;48.040;-1.594;2022-08-19T12:36:47;101347.09;;;23.64;100.00
46211;BME280;52144;48.040;-1.594;2022-08-19T12:39:15;101356.41;;;23.62;100.00
46211;BME280;52144;48.040;-1.594;2022-08-19T12:41:43;101348.31;;;23.31;100.00
46211;BME280;52144;48.040;-1.594;2022-08-19T12:44:21;101347.63;;;23.39;100.00
46211;BME280;52144;48.040;-1.594;2022-08-19T12:46:59;101356.63;;;23.39;100.00
46211;BME280;52144;48.040;-1.594;2022-08-19T12:49:30;101356.50;;;23.41;100.00
46211;BME280;52144;48.040;-1.594;2022-08-19T12:52:20;101352.56;;;23.74;100.00